Aérodrome :
LOGIN :

S'inscrire | Disclaimer

   EN    FR    IT 

 










Légende :    VFR   VFR Marginal   IFR   IFR Intensif   IFR Très Intensif
Visi : 
Plafond : 
>= 8 km
>= 3000ft
5 à 8 km
1000 à 3000 ft
1500m à 5 km
500 à 1000 ft
800 à 1500m
200 à 500 ft
< 800m
< 200 ft
Symboles :   Orages  Brouillard  Fortes neiges  Fortes précipitations  Vent > 20 kt
SIGMETs :   Divers  Orages  Givrage  Turbulence  Onde Orograph.  Cendres Volcan.






- Altitude de l'aérodrome : 177 ft
- Code IATA : BRI


LIBD - Palese Macchie Bari

DERNIER METAR :
  • 111750Z 06004KT CAVOK 26/20 Q1015

METARs EXPIRÉS :
  • 111720Z 07004KT CAVOK 28/20 Q1015
  • 111650Z 07004KT CAVOK 29/17 Q1015
  • 111620Z 07003KT 040V110 CAVOK 29/17 Q1015
  • 111550Z 07005KT 020V120 CAVOK 29/19 Q1015

TAF TAF LIBD
Valide du 11 à 18h jusqu'au 12 à 18h UTC


111700Z 1118/1218 VRB05KT CAVOK
BECMG 1208/1210 02012KT



MET'MAP, la Météo Aéronautique d'un coup d'oeil ! - Copyright ORBIFLY Décembre 2007 - Disclaimer

ORBIFLY MET'MAP TEAM :

Programmation & Développement : Alexandra Zaïnal
Sur une idée originale de : Baudouin d'Aumeries
Assistance à la programmation : Marc-Olivier Méhu
Soutien technique & logistique : Manuel Goepfert

Contact : metmap@orbifly.com




SOURCES & CREDITS :

   NOAA